sensor_id;sensor_type;location;lat;lon;timestamp;pressure;altitude;pressure_sealevel;temperature;humidity
33486;BME280;19824;52.098;5.004;2023-04-01T05:02:48;99397.59;;;12.23;99.88
33486;BME280;19824;52.098;5.004;2023-04-01T05:05:31;99394.72;;;12.25;99.87
33486;BME280;19824;52.098;5.004;2023-04-01T05:08:07;99400.91;;;12.25;100.00
33486;BME280;19824;52.098;5.004;2023-04-01T05:10:38;99402.16;;;12.29;99.89
33486;BME280;19824;52.098;5.004;2023-04-01T05:13:14;99406.22;;;12.25;99.35
33486;BME280;19824;52.098;5.004;2023-04-01T05:15:44;99407.25;;;12.24;99.58
33486;BME280;19824;52.098;5.004;2023-04-01T05:18:24;99423.63;;;12.21;100.00
33486;BME280;19824;52.098;5.004;2023-04-01T05:20:55;99425.09;;;12.24;99.45
33486;BME280;19824;52.098;5.004;2023-04-01T05:23:32;99432.44;;;12.22;99.68
33486;BME280;19824;52.098;5.004;2023-04-01T05:26:12;99433.66;;;12.19;100.00
33486;BME280;19824;52.098;5.004;2023-04-01T05:28:42;99437.63;;;12.23;99.18
33486;BME280;19824;52.098;5.004;2023-04-01T05:31:18;99444.97;;;12.21;99.57
33486;BME280;19824;52.098;5.004;2023-04-01T05:33:54;99451.34;;;12.20;99.86
33486;BME280;19824;52.098;5.004;2023-04-01T05:36:30;99453.34;;;12.18;100.00
33486;BME280;19824;52.098;5.004;2023-04-01T05:39:01;99460.34;;;12.19;100.00
33486;BME280;19824;52.098;5.004;2023-04-01T05:41:38;99460.63;;;12.24;99.58
33486;BME280;19824;52.098;5.004;2023-04-01T05:44:12;99464.31;;;12.23;99.60
33486;BME280;19824;52.098;5.004;2023-04-01T05:46:48;99469.00;;;12.21;99.89
33486;BME280;19824;52.098;5.004;2023-04-01T05:49:21;99469.81;;;12.22;99.38
33486;BME280;19824;52.098;5.004;2023-04-01T05:51:58;99468.81;;;12.23;99.88
33486;BME280;19824;52.098;5.004;2023-04-01T05:54:28;99475.16;;;12.22;100.00
33486;BME280;19824;52.098;5.004;2023-04-01T05:57:06;99474.97;;;12.23;100.00
33486;BME280;19824;52.098;5.004;2023-04-01T05:59:36;99477.66;;;12.23;100.00
33486;BME280;19824;52.098;5.004;2023-04-01T06:02:12;99473.56;;;12.27;99.87
33486;BME280;19824;52.098;5.004;2023-04-01T06:04:46;99482.63;;;12.26;99.98
33486;BME280;19824;52.098;5.004;2023-04-01T06:07:22;99488.31;;;12.23;99.88
33486;BME280;19824;52.098;5.004;2023-04-01T06:09:54;99484.66;;;12.24;99.69
33486;BME280;19824;52.098;5.004;2023-04-01T06:12:54;99500.66;;;12.24;99.95
33486;BME280;19824;52.098;5.004;2023-04-01T06:15:37;99498.81;;;12.25;99.60
33486;BME280;19824;52.098;5.004;2023-04-01T06:18:42;99504.22;;;12.31;100.00
33486;BME280;19824;52.098;5.004;2023-04-01T06:22:02;99513.00;;;12.25;99.48
33486;BME280;19824;52.098;5.004;2023-04-01T06:25:12;99516.28;;;12.27;99.03
33486;BME280;19824;52.098;5.004;2023-04-01T06:28:22;99515.03;;;12.23;99.89
33486;BME280;19824;52.098;5.004;2023-04-01T06:31:10;99526.50;;;12.24;99.95
33486;BME280;19824;52.098;5.004;2023-04-01T06:33:56;99537.28;;;12.16;100.00
33486;BME280;19824;52.098;5.004;2023-04-01T06:36:51;99545.56;;;12.21;99.88
33486;BME280;19824;52.098;5.004;2023-04-01T06:39:48;99544.19;;;12.25;99.40
33486;BME280;19824;52.098;5.004;2023-04-01T06:42:44;99553.41;;;12.22;100.00
33486;BME280;19824;52.098;5.004;2023-04-01T06:45:30;99546.84;;;12.25;99.76
33486;BME280;19824;52.098;5.004;2023-04-01T06:48:38;99561.41;;;12.22;99.85
33486;BME280;19824;52.098;5.004;2023-04-01T06:51:22;99568.66;;;12.28;99.54
33486;BME280;19824;52.098;5.004;2023-04-01T06:54:10;99567.75;;;12.21;99.54
33486;BME280;19824;52.098;5.004;2023-04-01T06:56:45;99579.06;;;12.23;99.78
33486;BME280;19824;52.098;5.004;2023-04-01T06:59:27;99584.22;;;12.25;100.00
33486;BME280;19824;52.098;5.004;2023-04-01T07:02:18;99582.09;;;12.20;100.00
33486;BME280;19824;52.098;5.004;2023-04-01T07:04:54;99589.38;;;12.26;99.69
33486;BME280;19824;52.098;5.004;2023-04-01T07:07:36;99590.28;;;12.33;99.36
33486;BME280;19824;52.098;5.004;2023-04-01T07:10:17;99593.50;;;12.29;99.46
33486;BME280;19824;52.098;5.004;2023-04-01T07:13:00;99599.94;;;12.34;100.00
33486;BME280;19824;52.098;5.004;2023-04-01T07:15:38;99599.13;;;12.34;100.00
33486;BME280;19824;52.098;5.004;2023-04-01T07:18:19;99607.59;;;12.37;99.84
33486;BME280;19824;52.098;5.004;2023-04-01T07:20:52;99612.19;;;12.43;99.32
33486;BME280;19824;52.098;5.004;2023-04-01T07:23:36;99620.75;;;12.39;99.95
33486;BME280;19824;52.098;5.004;2023-04-01T07:26:20;99621.59;;;12.39;99.94
33486;BME280;19824;52.098;5.004;2023-04-01T07:28:57;99624.50;;;12.44;99.76
33486;BME280;19824;52.098;5.004;2023-04-01T07:31:56;99628.41;;;12.42;99.69
33486;BME280;19824;52.098;5.004;2023-04-01T07:34:41;99635.59;;;12.41;100.00
33486;BME280;19824;52.098;5.004;2023-04-01T07:37:18;99643.59;;;12.41;99.55
33486;BME280;19824;52.098;5.004;2023-04-01T07:40:12;99647.16;;;12.48;99.89
33486;BME280;19824;52.098;5.004;2023-04-01T07:43:09;99641.66;;;12.50;99.88
33486;BME280;19824;52.098;5.004;2023-04-01T07:45:57;99648.47;;;12.52;99.32
33486;BME280;19824;52.098;5.004;2023-04-01T07:48:39;99652.16;;;12.51;99.73
33486;BME280;19824;52.098;5.004;2023-04-01T07:51:24;99652.78;;;12.53;99.37
33486;BME280;19824;52.098;5.004;2023-04-01T07:54:05;99660.44;;;12.56;99.62
33486;BME280;19824;52.098;5.004;2023-04-01T07:56:49;99667.25;;;12.59;99.52
33486;BME280;19824;52.098;5.004;2023-04-01T07:59:32;99672.38;;;12.60;98.83
33486;BME280;19824;52.098;5.004;2023-04-01T08:02:28;99672.78;;;12.57;99.92
33486;BME280;19824;52.098;5.004;2023-04-01T08:05:14;99672.47;;;12.66;99.64
33486;BME280;19824;52.098;5.004;2023-04-01T08:08:02;99684.66;;;12.69;99.35
33486;BME280;19824;52.098;5.004;2023-04-01T08:10:48;99688.63;;;12.73;99.75
33486;BME280;19824;52.098;5.004;2023-04-01T08:13:34;99694.41;;;12.76;99.65
33486;BME280;19824;52.098;5.004;2023-04-01T08:16:23;99695.50;;;12.82;100.00
33486;BME280;19824;52.098;5.004;2023-04-01T08:19:06;99702.22;;;12.78;99.52
33486;BME280;19824;52.098;5.004;2023-04-01T08:21:49;99703.97;;;12.85;99.08
33486;BME280;19824;52.098;5.004;2023-04-01T08:24:34;99705.31;;;12.89;98.95
33486;BME280;19824;52.098;5.004;2023-04-01T08:27:20;99703.94;;;12.93;99.20
33486;BME280;19824;52.098;5.004;2023-04-01T08:29:58;99714.78;;;12.92;99.49
33486;BME280;19824;52.098;5.004;2023-04-01T08:32:41;99714.78;;;12.92;99.85
33486;BME280;19824;52.098;5.004;2023-04-01T08:35:20;99724.00;;;13.04;99.69
33486;BME280;19824;52.098;5.004;2023-04-01T08:38:11;99726.13;;;13.08;99.83
33486;BME280;19824;52.098;5.004;2023-04-01T08:41:12;99731.19;;;13.03;98.94
33486;BME280;19824;52.098;5.004;2023-04-01T08:44:34;99735.72;;;13.03;99.29
33486;BME280;19824;52.098;5.004;2023-04-01T08:47:50;99741.06;;;13.03;99.62
33486;BME280;19824;52.098;5.004;2023-04-01T08:54:18;99749.44;;;13.00;99.10
33486;BME280;19824;52.098;5.004;2023-04-01T08:57:04;99744.53;;;13.03;99.00
33486;BME280;19824;52.098;5.004;2023-04-01T08:59:57;99755.22;;;13.03;98.94
33486;BME280;19824;52.098;5.004;2023-04-01T09:06:24;99763.97;;;13.12;98.58
33486;BME280;19824;52.098;5.004;2023-04-01T09:09:31;99763.25;;;13.18;98.83
33486;BME280;19824;52.098;5.004;2023-04-01T09:12:31;99766.00;;;13.24;99.16
33486;BME280;19824;52.098;5.004;2023-04-01T09:15:34;99770.22;;;13.33;99.39
33486;BME280;19824;52.098;5.004;2023-04-01T09:24:59;99777.38;;;13.62;99.13
33486;BME280;19824;52.098;5.004;2023-04-01T09:27:45;99788.41;;;13.73;98.63
33486;BME280;19824;52.098;5.004;2023-04-01T09:30:48;99790.03;;;13.74;98.41
33486;BME280;19824;52.098;5.004;2023-04-01T09:34:03;99785.81;;;13.79;98.06
33486;BME280;19824;52.098;5.004;2023-04-01T09:36:45;99784.84;;;13.87;98.81
33486;BME280;19824;52.098;5.004;2023-04-01T09:39:36;99785.41;;;13.82;98.41
33486;BME280;19824;52.098;5.004;2023-04-01T09:42:39;99796.66;;;13.92;99.02
33486;BME280;19824;52.098;5.004;2023-04-01T09:45:35;99799.19;;;14.00;97.81
33486;BME280;19824;52.098;5.004;2023-04-01T09:48:57;99796.78;;;14.05;98.35
33486;BME280;19824;52.098;5.004;2023-04-01T09:51:53;99800.63;;;14.17;98.90
33486;BME280;19824;52.098;5.004;2023-04-01T09:54:57;99804.31;;;14.16;97.86
33486;BME280;19824;52.098;5.004;2023-04-01T09:58:13;99810.97;;;14.20;98.01
33486;BME280;19824;52.098;5.004;2023-04-01T10:01:06;99822.97;;;14.24;97.17
33486;BME280;19824;52.098;5.004;2023-04-01T10:04:41;99820.38;;;14.16;97.22
33486;BME280;19824;52.098;5.004;2023-04-01T10:11:03;99825.09;;;14.14;96.58
33486;BME280;19824;52.098;5.004;2023-04-01T10:14:16;99827.97;;;14.13;97.47
33486;BME280;19824;52.098;5.004;2023-04-01T10:20:46;99842.47;;;14.39;96.90
33486;BME280;19824;52.098;5.004;2023-04-01T10:24:11;99841.31;;;14.48;97.43
33486;BME280;19824;52.098;5.004;2023-04-01T10:27:09;99846.34;;;14.58;97.50
33486;BME280;19824;52.098;5.004;2023-04-01T10:30:42;99844.94;;;14.62;96.68
33486;BME280;19824;52.098;5.004;2023-04-01T10:34:10;99845.63;;;14.70;96.37
33486;BME280;19824;52.098;5.004;2023-04-01T10:36:56;99846.09;;;14.80;96.40
33486;BME280;19824;52.098;5.004;2023-04-01T10:39:50;99845.97;;;14.88;96.71
33486;BME280;19824;52.098;5.004;2023-04-01T10:43:11;99846.47;;;14.98;96.17
33486;BME280;19824;52.098;5.004;2023-04-01T10:49:28;99859.88;;;14.77;95.30
33486;BME280;19824;52.098;5.004;2023-04-01T10:52:39;99857.38;;;14.69;94.56
33486;BME280;19824;52.098;5.004;2023-04-01T10:55:48;99862.47;;;14.64;94.52
33486;BME280;19824;52.098;5.004;2023-04-01T10:58:53;99873.56;;;14.61;95.75
33486;BME280;19824;52.098;5.004;2023-04-01T11:15:39;99877.47;;;14.59;95.02
33486;BME280;19824;52.098;5.004;2023-04-01T11:19:01;99880.09;;;14.73;94.99
33486;BME280;19824;52.098;5.004;2023-04-01T11:22:24;99883.34;;;14.96;94.83
33486;BME280;19824;52.098;5.004;2023-04-01T11:25:46;99891.09;;;15.12;94.57
33486;BME280;19824;52.098;5.004;2023-04-01T11:28:49;99887.13;;;15.29;94.19
33486;BME280;19824;52.098;5.004;2023-04-01T11:31:58;99888.47;;;15.46;94.36
33486;BME280;19824;52.098;5.004;2023-04-01T11:34:57;99893.56;;;15.68;94.44
33486;BME280;19824;52.098;5.004;2023-04-01T11:37:38;99885.34;;;15.82;93.61
33486;BME280;19824;52.098;5.004;2023-04-01T11:40:27;99894.63;;;15.73;91.77
33486;BME280;19824;52.098;5.004;2023-04-01T11:43:08;99896.78;;;15.51;92.10
33486;BME280;19824;52.098;5.004;2023-04-01T11:46:07;99903.63;;;15.60;92.92
33486;BME280;19824;52.098;5.004;2023-04-01T11:49:00;99908.78;;;15.61;92.94
33486;BME280;19824;52.098;5.004;2023-04-01T11:51:57;99912.28;;;15.55;91.83
33486;BME280;19824;52.098;5.004;2023-04-01T11:55:08;99908.53;;;15.50;91.56
33486;BME280;19824;52.098;5.004;2023-04-01T12:01:29;99926.06;;;15.46;91.28
33486;BME280;19824;52.098;5.004;2023-04-01T12:07:57;99958.03;;;14.99;90.97
33486;BME280;19824;52.098;5.004;2023-04-01T12:10:39;99962.91;;;14.89;90.35
33486;BME280;19824;52.098;5.004;2023-04-01T12:13:33;99964.34;;;14.70;90.58
33486;BME280;19824;52.098;5.004;2023-04-01T12:16:28;99965.97;;;14.65;91.00
33486;BME280;19824;52.098;5.004;2023-04-01T12:19:20;99972.16;;;14.66;91.38
33486;BME280;19824;52.098;5.004;2023-04-01T12:22:14;99973.25;;;14.71;91.57
33486;BME280;19824;52.098;5.004;2023-04-01T12:25:07;99974.13;;;14.78;91.55
33486;BME280;19824;52.098;5.004;2023-04-01T12:28:00;99973.94;;;14.79;91.23
33486;BME280;19824;52.098;5.004;2023-04-01T12:31:04;99976.44;;;14.81;91.19
33486;BME280;19824;52.098;5.004;2023-04-01T12:37:09;99992.25;;;14.76;90.87
33486;BME280;19824;52.098;5.004;2023-04-01T12:40:02;99993.09;;;14.76;91.11
33486;BME280;19824;52.098;5.004;2023-04-01T12:42:55;99992.25;;;14.76;91.13
33486;BME280;19824;52.098;5.004;2023-04-01T12:45:37;99999.88;;;14.93;92.05
33486;BME280;19824;52.098;5.004;2023-04-01T12:51:55;100002.59;;;15.00;90.51
33486;BME280;19824;52.098;5.004;2023-04-01T12:58:02;100009.25;;;15.04;89.66
33486;BME280;19824;52.098;5.004;2023-04-01T13:00:49;100012.91;;;14.96;89.63
